Aviation Digital Data Service (ADDS)

Output produced by METARs form (1602 UTC 21 September 2017)
found at http://www.aviationweather.gov/adds/metars/
 
METAR text: KHAE 211555Z AUTO 06008KT 10SM CLR 27/17 A3005 RMK AO2 LTG DSNT NW
Conditions at: KHAE (HANNIBAL , MO, US) observed 1555 UTC 21 September 2017
Temperature: 27.0°C (81°F)
Dewpoint: 17.0°C (63°F) [RH = 54%]
Pressure (altimeter): 30.05 inches Hg (1017.7 mb)
Winds: from the ENE (60 degrees) at 9 MPH (8 knots; 4.2 m/s)
Visibility: 10 or more miles (16+ km)
Ceiling: at least 12,000 feet AGL
Clouds: sky clear below 12,000 feet AGL
Weather: automated observation with no human augmentation;
there may or may not be significant weather present at this time